DXNG

Niamtougou International Airport

Niamtougou, Togo
METAR DXNG 172100Z 12004KT CAVOK 26/21 Q1016
Observed Flight Rules
Nov-17 @ 21:00 UTC (38 minutes ago) Visual Flight Rules
Wind Visibility Clouds
120° at 4 knots 10,000+ meters
  • Clear skies
Temperatures Readings
Current 26°C / 79°F
Dewpoint 21°C / 70°F
Humidity 74%
Altimeter 30" Hg
Pressure 1016 hPa
Elevation 343
METAR DXNG 172100Z 12004KT CAVOK 26/21 Q1016
Observed Flight Rules
Nov-17 @ 21:00 UTC
(38 minutes ago)
VFR
Wind Visibility
120° at 4 knots 10,000+ meters
Clouds
  • Clear skies
Temperature Dewpoint
26°C / 79°F 21°C / 70°F
Humidity Altimeter Pressure
74% 30" Hg 1016 hPa